createdAt,value
2023-01-31T00:00:20.709Z,6.57
2023-01-31T00:01:20.756Z,6.54
2023-01-31T00:02:20.824Z,6.55
2023-01-31T00:03:20.791Z,6.54
2023-01-31T00:04:20.805Z,6.51
2023-01-31T00:05:21.208Z,6.51
2023-01-31T00:06:20.851Z,6.52
2023-01-31T00:07:20.870Z,6.47
2023-01-31T00:08:20.896Z,6.43
2023-01-31T00:09:20.915Z,6.44
2023-01-31T00:10:20.944Z,6.51
2023-01-31T00:11:20.960Z,6.52
2023-01-31T00:12:20.985Z,6.51
2023-01-31T00:13:21.008Z,6.49
2023-01-31T00:14:21.081Z,6.52
2023-01-31T00:15:21.544Z,6.49
2023-01-31T00:16:21.081Z,6.57
2023-01-31T00:17:21.127Z,6.46
2023-01-31T00:18:21.123Z,6.40
2023-01-31T00:19:21.144Z,6.44
2023-01-31T00:20:21.177Z,6.52
2023-01-31T00:21:21.191Z,6.54
2023-01-31T00:22:21.217Z,6.44
2023-01-31T00:23:21.244Z,6.49
2023-01-31T00:24:21.266Z,6.52
2023-01-31T00:25:21.694Z,6.57
2023-01-31T00:26:21.367Z,6.57
2023-01-31T00:27:21.334Z,6.51
2023-01-31T00:28:21.355Z,6.46
2023-01-31T00:29:21.376Z,6.51
2023-01-31T00:30:21.410Z,6.43
2023-01-31T00:31:21.577Z,6.46
2023-01-31T00:32:21.481Z,6.43
2023-01-31T00:33:21.493Z,6.49
2023-01-31T00:34:21.495Z,6.46
2023-01-31T00:35:21.898Z,6.46
2023-01-31T00:36:21.556Z,6.43
2023-01-31T00:37:21.571Z,6.40
2023-01-31T00:38:21.592Z,6.44
2023-01-31T00:39:21.607Z,6.39
2023-01-31T00:40:21.632Z,6.49
2023-01-31T00:41:21.653Z,6.47
2023-01-31T00:42:21.677Z,6.46
2023-01-31T00:43:21.699Z,6.43
2023-01-31T00:44:21.725Z,6.46
2023-01-31T00:45:22.037Z,6.49
2023-01-31T00:46:21.794Z,6.46
2023-01-31T00:47:21.807Z,6.47
2023-01-31T00:48:21.819Z,6.47
2023-01-31T00:49:21.916Z,6.47
2023-01-31T00:50:21.877Z,6.44
2023-01-31T00:51:22.036Z,6.42
2023-01-31T00:52:21.979Z,6.54
2023-01-31T00:53:21.934Z,6.44
2023-01-31T00:54:21.960Z,6.47
2023-01-31T00:55:22.287Z,6.44
2023-01-31T00:56:22.007Z,6.42
2023-01-31T00:57:22.022Z,6.42
2023-01-31T00:58:22.064Z,6.40
2023-01-31T00:59:22.070Z,6.40
2023-01-31T01:00:22.094Z,6.42
2023-01-31T01:01:22.118Z,6.42
2023-01-31T01:02:22.140Z,6.36
2023-01-31T01:03:22.169Z,6.36
2023-01-31T01:04:22.190Z,6.26
2023-01-31T01:05:22.548Z,6.40
2023-01-31T01:06:22.234Z,6.28
2023-01-31T01:07:22.256Z,6.29
2023-01-31T01:08:22.280Z,6.26
2023-01-31T01:09:22.302Z,6.39
2023-01-31T01:10:22.335Z,6.34
2023-01-31T01:11:22.348Z,6.33
2023-01-31T01:12:22.371Z,6.21
2023-01-31T01:13:22.393Z,6.25
2023-01-31T01:14:22.418Z,6.25
2023-01-31T01:15:22.693Z,6.20
2023-01-31T01:16:22.482Z,6.21
2023-01-31T01:17:22.485Z,6.10
2023-01-31T01:18:22.513Z,6.07
2023-01-31T01:19:22.540Z,6.15
2023-01-31T01:20:22.556Z,6.14
2023-01-31T01:21:22.611Z,6.17
2023-01-31T01:22:22.602Z,6.10
2023-01-31T01:23:22.623Z,6.05
2023-01-31T01:24:22.648Z,6.09
2023-01-31T01:25:22.890Z,6.05
2023-01-31T01:26:22.778Z,6.03
2023-01-31T01:27:22.714Z,6.07
2023-01-31T01:28:22.740Z,6.00
2023-01-31T01:29:22.760Z,6.03
2023-01-31T01:30:22.794Z,6.00
2023-01-31T01:31:23.010Z,6.03
2023-01-31T01:32:22.845Z,6.07
2023-01-31T01:33:22.852Z,6.07
2023-01-31T01:34:22.879Z,6.07
2023-01-31T01:35:22.902Z,6.05
2023-01-31T01:36:22.925Z,6.05
2023-01-31T01:37:22.971Z,6.02
2023-01-31T01:38:22.967Z,6.13
2023-01-31T01:39:22.989Z,6.10
2023-01-31T01:40:23.014Z,6.10
2023-01-31T01:41:23.037Z,6.10
2023-01-31T01:42:23.062Z,6.09
2023-01-31T01:43:23.085Z,6.13
2023-01-31T01:44:23.108Z,6.17
2023-01-31T01:45:23.452Z,6.07
2023-01-31T01:46:23.153Z,6.10
2023-01-31T01:47:23.172Z,6.10
2023-01-31T01:48:23.197Z,6.14
2023-01-31T01:49:23.229Z,6.14
2023-01-31T01:50:23.247Z,6.09
2023-01-31T01:51:23.485Z,6.13
2023-01-31T01:52:23.293Z,6.18
2023-01-31T01:53:23.338Z,6.14
2023-01-31T01:54:23.335Z,6.24
2023-01-31T01:55:23.359Z,6.17
2023-01-31T01:56:23.380Z,6.17
2023-01-31T01:57:23.409Z,6.10
2023-01-31T01:58:23.430Z,6.14
2023-01-31T01:59:23.448Z,6.10
2023-01-31T02:00:23.472Z,6.13
2023-01-31T02:01:23.553Z,6.17
2023-01-31T02:02:23.585Z,6.17
2023-01-31T02:03:23.547Z,6.13
2023-01-31T02:04:23.562Z,6.20
2023-01-31T02:05:23.587Z,6.15
2023-01-31T02:06:23.609Z,6.15
2023-01-31T02:07:23.633Z,6.17
2023-01-31T02:08:23.655Z,6.15
2023-01-31T02:09:23.702Z,6.10
2023-01-31T02:10:23.703Z,6.15
2023-01-31T02:11:23.722Z,6.14
2023-01-31T02:12:23.748Z,6.10
2023-01-31T02:13:23.769Z,6.10
2023-01-31T02:14:23.795Z,6.13
2023-01-31T02:15:23.816Z,6.07
2023-01-31T02:16:24.630Z,6.14
2023-01-31T02:17:24.498Z,6.09
2023-01-31T02:18:24.515Z,6.14
2023-01-31T02:19:24.349Z,6.13
2023-01-31T02:20:24.019Z,6.14
2023-01-31T02:21:23.957Z,6.10
2023-01-31T02:22:23.988Z,6.14
2023-01-31T02:23:24.005Z,6.14
2023-01-31T02:24:24.030Z,6.10
2023-01-31T02:25:24.070Z,6.09
2023-01-31T02:26:24.510Z,6.09
2023-01-31T02:27:24.424Z,6.13
2023-01-31T02:28:24.564Z,6.05
2023-01-31T02:29:24.236Z,6.06
2023-01-31T02:30:24.176Z,6.13
2023-01-31T02:31:24.221Z,6.13
2023-01-31T02:32:24.207Z,6.13
2023-01-31T02:33:24.230Z,6.07
2023-01-31T02:34:24.894Z,5.99
2023-01-31T02:35:24.717Z,6.02
2023-01-31T02:36:24.528Z,6.02
2023-01-31T02:37:24.391Z,5.92
2023-01-31T02:38:24.361Z,6.02
2023-01-31T02:39:24.385Z,5.96
2023-01-31T02:40:24.391Z,5.96
2023-01-31T02:41:24.442Z,5.95
2023-01-31T02:42:24.959Z,5.87
2023-01-31T02:43:24.829Z,5.84
2023-01-31T02:44:24.900Z,5.95
2023-01-31T02:45:24.502Z,5.89
2023-01-31T02:46:24.656Z,5.81
2023-01-31T02:47:24.641Z,5.77
2023-01-31T02:48:24.573Z,5.77
2023-01-31T02:49:24.595Z,5.87
2023-01-31T02:50:24.623Z,5.70
2023-01-31T02:51:24.649Z,5.78
2023-01-31T02:52:24.669Z,5.78
2023-01-31T02:53:24.687Z,5.66
2023-01-31T02:54:24.717Z,5.67
2023-01-31T02:55:24.736Z,5.75
2023-01-31T02:56:24.756Z,5.66
2023-01-31T02:57:24.798Z,5.80
2023-01-31T02:58:24.807Z,5.69
2023-01-31T02:59:24.823Z,5.67
2023-01-31T03:00:24.856Z,5.81
2023-01-31T03:01:25.011Z,5.78
2023-01-31T03:02:24.979Z,5.81
2023-01-31T03:03:24.914Z,5.81
2023-01-31T03:04:24.943Z,5.81
2023-01-31T03:05:25.917Z,5.78
2023-01-31T03:06:24.988Z,5.75
2023-01-31T03:07:25.007Z,5.75
2023-01-31T03:08:25.030Z,5.70
2023-01-31T03:09:25.063Z,5.72
2023-01-31T03:10:25.078Z,5.57
2023-01-31T03:11:25.097Z,5.64
2023-01-31T03:12:25.125Z,5.72
2023-01-31T03:13:25.161Z,5.63
2023-01-31T03:14:25.167Z,5.60
2023-01-31T03:15:25.462Z,5.67
2023-01-31T03:16:25.223Z,5.62
2023-01-31T03:17:25.242Z,5.59
2023-01-31T03:18:25.263Z,5.63
2023-01-31T03:19:25.281Z,5.62
2023-01-31T03:20:25.303Z,5.62
2023-01-31T03:21:25.326Z,5.62
2023-01-31T03:22:25.351Z,5.62
2023-01-31T03:23:25.370Z,5.59
2023-01-31T03:24:25.396Z,5.59
2023-01-31T03:25:25.428Z,5.63
2023-01-31T03:26:25.482Z,5.59
2023-01-31T03:27:25.461Z,5.59
2023-01-31T03:28:25.489Z,5.64
2023-01-31T03:29:25.524Z,5.63
2023-01-31T03:30:25.532Z,5.60
2023-01-31T03:31:25.626Z,5.52
2023-01-31T03:32:25.576Z,5.60
2023-01-31T03:33:25.602Z,5.52
2023-01-31T03:34:25.627Z,5.55
2023-01-31T03:35:25.645Z,5.45
2023-01-31T03:36:25.666Z,5.49
2023-01-31T03:37:25.689Z,5.48
2023-01-31T03:38:25.713Z,5.48
2023-01-31T03:39:25.737Z,5.55
2023-01-31T03:40:25.756Z,5.37
2023-01-31T03:41:25.781Z,5.37
2023-01-31T03:42:25.803Z,5.27
2023-01-31T03:43:25.826Z,5.30
2023-01-31T03:44:25.861Z,5.23
2023-01-31T03:45:25.894Z,5.21
2023-01-31T03:46:25.936Z,5.24
2023-01-31T03:47:25.919Z,5.20
2023-01-31T03:48:25.937Z,5.08
2023-01-31T03:49:25.962Z,5.00
2023-01-31T03:50:25.993Z,5.00
2023-01-31T03:51:26.007Z,4.94
2023-01-31T03:52:26.028Z,4.94
2023-01-31T03:53:26.052Z,4.97
2023-01-31T03:54:26.073Z,4.92
2023-01-31T03:55:26.097Z,4.95
2023-01-31T03:56:26.117Z,5.00
2023-01-31T03:57:26.145Z,4.92
2023-01-31T03:58:26.165Z,4.90
2023-01-31T03:59:26.215Z,4.85
2023-01-31T04:00:26.214Z,4.92
2023-01-31T04:01:26.299Z,4.75
2023-01-31T04:02:26.259Z,4.72
2023-01-31T04:03:26.279Z,4.71
2023-01-31T04:04:26.300Z,4.72
2023-01-31T04:05:26.323Z,4.60
2023-01-31T04:06:26.345Z,4.58
2023-01-31T04:07:26.367Z,4.54
2023-01-31T04:08:26.388Z,4.60
2023-01-31T04:09:26.418Z,4.47
2023-01-31T04:10:26.433Z,4.47
2023-01-31T04:11:26.465Z,4.56
2023-01-31T04:12:26.478Z,4.50
2023-01-31T04:13:26.506Z,4.50
2023-01-31T04:14:26.524Z,4.54
2023-01-31T04:15:26.547Z,4.44
2023-01-31T04:16:26.595Z,4.39
2023-01-31T04:17:26.618Z,4.35
2023-01-31T04:18:26.613Z,4.35
2023-01-31T04:19:26.642Z,4.29
2023-01-31T04:20:26.663Z,4.30
2023-01-31T04:21:26.689Z,4.22
2023-01-31T04:22:26.707Z,4.28
2023-01-31T04:23:26.725Z,4.18
2023-01-31T04:24:26.747Z,4.17
2023-01-31T04:25:26.769Z,4.20
2023-01-31T04:26:26.812Z,4.17
2023-01-31T04:27:26.815Z,4.08
2023-01-31T04:28:26.839Z,4.11
2023-01-31T04:29:26.859Z,4.10
2023-01-31T04:30:26.887Z,4.11
2023-01-31T04:31:27.006Z,4.02
2023-01-31T04:32:26.928Z,4.03
2023-01-31T04:33:26.973Z,3.97
2023-01-31T04:34:26.969Z,4.03
2023-01-31T04:35:26.992Z,3.93
2023-01-31T04:36:27.013Z,3.93
2023-01-31T04:37:27.038Z,3.92
2023-01-31T04:38:27.061Z,3.89
2023-01-31T04:39:27.081Z,3.82
2023-01-31T04:40:27.103Z,3.79
2023-01-31T04:41:27.126Z,3.75
2023-01-31T04:42:27.150Z,3.69
2023-01-31T04:43:27.176Z,3.67
2023-01-31T04:44:27.195Z,3.58
2023-01-31T04:45:27.252Z,3.53
2023-01-31T04:46:27.267Z,3.66
2023-01-31T04:47:27.257Z,3.49
2023-01-31T04:48:29.035Z,3.49
2023-01-31T04:49:27.326Z,3.54
2023-01-31T04:50:27.325Z,3.56
2023-01-31T04:51:27.498Z,3.48
2023-01-31T04:52:27.365Z,3.48
2023-01-31T04:53:27.401Z,3.39
2023-01-31T04:54:27.414Z,3.39
2023-01-31T04:55:27.471Z,3.34
2023-01-31T04:56:27.455Z,3.43
2023-01-31T04:57:27.478Z,3.30
2023-01-31T04:58:27.499Z,3.37
2023-01-31T04:59:27.525Z,3.23
2023-01-31T05:00:27.545Z,3.21
2023-01-31T05:01:27.570Z,3.19
2023-01-31T05:02:27.643Z,3.24
2023-01-31T05:03:27.610Z,3.24
2023-01-31T05:04:27.633Z,3.17
2023-01-31T05:05:27.669Z,3.08
2023-01-31T05:06:27.677Z,3.06
2023-01-31T05:07:27.695Z,3.13
2023-01-31T05:08:27.720Z,3.09
2023-01-31T05:09:27.744Z,3.03
2023-01-31T05:10:27.761Z,3.03
2023-01-31T05:11:27.784Z,3.03
2023-01-31T05:12:27.803Z,3.09
2023-01-31T05:13:27.829Z,3.06
2023-01-31T05:14:27.849Z,3.02
2023-01-31T05:15:27.880Z,2.96
2023-01-31T05:16:27.928Z,2.93
2023-01-31T05:17:27.914Z,2.91
2023-01-31T05:18:27.934Z,2.91
2023-01-31T05:19:27.969Z,2.90
2023-01-31T05:20:27.980Z,2.85
2023-01-31T05:21:28.024Z,2.88
2023-01-31T05:22:28.027Z,2.88
2023-01-31T05:23:28.050Z,2.81
2023-01-31T05:24:28.064Z,2.84
2023-01-31T05:25:28.089Z,2.81
2023-01-31T05:26:28.163Z,2.81
2023-01-31T05:27:28.131Z,2.83
2023-01-31T05:28:28.156Z,2.85
2023-01-31T05:29:28.178Z,2.90
2023-01-31T05:30:28.195Z,2.85
2023-01-31T05:31:28.254Z,2.90
2023-01-31T05:32:28.237Z,2.90
2023-01-31T05:33:29.334Z,2.99
2023-01-31T05:34:28.282Z,3.01
2023-01-31T05:35:28.319Z,3.02
2023-01-31T05:36:28.324Z,3.03
2023-01-31T05:37:28.371Z,2.98
2023-01-31T05:38:28.370Z,2.98
2023-01-31T05:39:28.400Z,3.06
2023-01-31T05:40:28.417Z,3.11
2023-01-31T05:41:28.435Z,3.08
2023-01-31T05:42:28.470Z,3.08
2023-01-31T05:43:28.478Z,3.20
2023-01-31T05:44:28.500Z,3.19
2023-01-31T05:45:28.580Z,3.27
2023-01-31T05:46:28.542Z,3.35
2023-01-31T05:47:28.563Z,3.26
2023-01-31T05:48:28.596Z,3.23
2023-01-31T05:49:28.606Z,3.37
2023-01-31T05:50:28.627Z,3.32
2023-01-31T05:51:28.656Z,3.30
2023-01-31T05:52:28.668Z,3.42
2023-01-31T05:53:28.719Z,3.39
2023-01-31T05:54:28.724Z,3.42
2023-01-31T05:55:28.749Z,3.51
2023-01-31T05:56:28.758Z,3.53
2023-01-31T05:57:28.783Z,3.43
2023-01-31T05:58:28.801Z,3.54
2023-01-31T05:59:28.826Z,3.49
2023-01-31T06:00:28.844Z,3.60
2023-01-31T06:01:28.871Z,3.53
2023-01-31T06:02:28.973Z,3.53
2023-01-31T06:03:29.003Z,3.60
2023-01-31T06:04:28.933Z,3.67
2023-01-31T06:05:28.954Z,3.74
2023-01-31T06:06:28.981Z,3.75
2023-01-31T06:07:28.998Z,3.76
2023-01-31T06:08:29.018Z,3.90
2023-01-31T06:09:29.066Z,3.78
2023-01-31T06:10:29.071Z,3.92
2023-01-31T06:11:29.089Z,3.92
2023-01-31T06:12:29.107Z,4.04
2023-01-31T06:13:29.140Z,4.08
2023-01-31T06:14:29.157Z,4.03
2023-01-31T06:15:29.173Z,4.03
2023-01-31T06:16:29.233Z,4.12
2023-01-31T06:17:30.477Z,4.14
2023-01-31T06:18:29.244Z,4.18
2023-01-31T06:19:29.262Z,4.21
2023-01-31T06:20:29.287Z,4.20
2023-01-31T06:21:29.328Z,4.20
2023-01-31T06:22:29.326Z,4.21
2023-01-31T06:23:29.349Z,4.18
2023-01-31T06:24:29.380Z,4.22
2023-01-31T06:25:29.411Z,4.15
2023-01-31T06:26:29.444Z,4.22
2023-01-31T06:27:29.437Z,4.28
2023-01-31T06:28:29.459Z,4.22
2023-01-31T06:29:29.483Z,4.21
2023-01-31T06:30:29.681Z,4.29
2023-01-31T06:31:29.667Z,4.33
2023-01-31T06:32:29.551Z,4.35
2023-01-31T06:33:43.489Z,4.40
2023-01-31T06:34:29.589Z,4.40
2023-01-31T06:35:29.619Z,4.51
2023-01-31T06:36:29.638Z,4.50
2023-01-31T06:37:29.658Z,4.57
2023-01-31T06:38:29.681Z,4.53
2023-01-31T06:39:29.701Z,4.48
2023-01-31T06:40:29.725Z,4.60
2023-01-31T06:41:29.767Z,4.58
2023-01-31T06:42:29.769Z,4.60
2023-01-31T06:43:30.432Z,4.60
2023-01-31T06:44:30.413Z,4.60
2023-01-31T06:45:29.836Z,4.57
2023-01-31T06:46:30.425Z,4.58
2023-01-31T06:47:30.697Z,4.61
2023-01-31T06:48:30.434Z,4.61
2023-01-31T06:49:30.432Z,4.69
2023-01-31T06:50:30.324Z,4.60
2023-01-31T06:51:30.421Z,4.66
2023-01-31T06:52:30.583Z,4.68
2023-01-31T06:53:30.484Z,4.69
2023-01-31T06:54:30.522Z,4.68
2023-01-31T06:55:30.414Z,4.69
2023-01-31T06:56:30.503Z,4.74
2023-01-31T06:57:30.420Z,4.72
2023-01-31T06:58:30.354Z,4.71
2023-01-31T06:59:30.327Z,4.78
2023-01-31T07:00:30.575Z,4.75
2023-01-31T07:01:30.420Z,4.83
2023-01-31T07:02:30.416Z,4.76
2023-01-31T07:03:30.311Z,4.76
2023-01-31T07:04:30.472Z,4.75
2023-01-31T07:05:30.566Z,4.79
2023-01-31T07:06:30.521Z,4.83
2023-01-31T07:07:30.354Z,4.85
2023-01-31T07:08:30.471Z,4.91
2023-01-31T07:09:31.387Z,4.88
2023-01-31T07:10:30.514Z,4.88
2023-01-31T07:11:30.426Z,4.97
2023-01-31T07:12:30.441Z,4.92
2023-01-31T07:13:30.481Z,4.98
2023-01-31T07:14:30.481Z,4.97
2023-01-31T07:15:30.506Z,4.94
2023-01-31T07:16:30.535Z,4.97
2023-01-31T07:17:30.548Z,4.95
2023-01-31T07:18:30.574Z,5.09
2023-01-31T07:19:30.599Z,4.98
2023-01-31T07:20:31.127Z,4.98
2023-01-31T07:21:30.650Z,5.03
2023-01-31T07:22:31.095Z,5.02
2023-01-31T07:23:31.133Z,5.05
2023-01-31T07:24:31.152Z,5.15
2023-01-31T07:25:31.143Z,5.06
2023-01-31T07:26:31.170Z,5.12
2023-01-31T07:27:31.202Z,5.15
2023-01-31T07:28:31.208Z,5.16
2023-01-31T07:29:31.268Z,5.15
2023-01-31T07:30:30.918Z,5.21
2023-01-31T07:31:31.220Z,5.21
2023-01-31T07:32:31.126Z,5.26
2023-01-31T07:33:31.104Z,5.30
2023-01-31T07:34:31.247Z,5.21
2023-01-31T07:35:31.085Z,5.26
2023-01-31T07:36:31.170Z,5.23
2023-01-31T07:37:31.110Z,5.26
2023-01-31T07:38:31.024Z,5.23
2023-01-31T07:39:31.060Z,5.27
2023-01-31T07:40:31.090Z,5.20
2023-01-31T07:41:31.264Z,5.26
2023-01-31T07:42:31.113Z,5.28
2023-01-31T07:43:31.138Z,5.27
2023-01-31T07:44:31.162Z,5.23
2023-01-31T07:45:31.199Z,5.37
2023-01-31T07:46:31.226Z,5.28
2023-01-31T07:47:31.228Z,5.41
2023-01-31T07:48:31.826Z,5.44
2023-01-31T07:49:31.280Z,5.39
2023-01-31T07:50:31.302Z,5.44
2023-01-31T07:51:31.319Z,5.46
2023-01-31T07:52:31.342Z,5.51
2023-01-31T07:53:31.863Z,5.49
2023-01-31T07:54:31.950Z,5.54
2023-01-31T07:55:32.061Z,5.62
2023-01-31T07:56:32.192Z,5.62
2023-01-31T07:57:32.084Z,5.69
2023-01-31T07:58:31.952Z,5.75
2023-01-31T07:59:31.945Z,5.81
2023-01-31T08:00:32.011Z,5.85
2023-01-31T08:01:31.909Z,5.92
2023-01-31T08:02:31.925Z,6.02
2023-01-31T08:03:31.893Z,6.03
2023-01-31T08:04:32.089Z,6.06
2023-01-31T08:05:31.891Z,6.07
2023-01-31T08:06:31.897Z,6.14
2023-01-31T08:07:31.865Z,6.09
2023-01-31T08:08:31.710Z,6.18
2023-01-31T08:09:32.151Z,6.18
2023-01-31T08:10:31.851Z,6.17
2023-01-31T08:11:31.919Z,6.15
2023-01-31T08:12:31.845Z,6.25
2023-01-31T08:13:31.823Z,6.26
2023-01-31T08:14:31.848Z,6.26
2023-01-31T08:15:31.919Z,6.36
2023-01-31T08:16:31.927Z,6.37
2023-01-31T08:17:32.033Z,6.36
2023-01-31T08:18:31.963Z,6.43
2023-01-31T08:19:31.983Z,6.43
2023-01-31T08:20:31.984Z,6.52
2023-01-31T08:21:32.011Z,6.49
2023-01-31T08:22:32.034Z,6.54
2023-01-31T08:23:32.194Z,6.57
2023-01-31T08:24:32.080Z,6.60
2023-01-31T08:25:32.370Z,6.65
2023-01-31T08:26:32.143Z,6.79
2023-01-31T08:27:32.147Z,6.83
2023-01-31T08:28:32.766Z,6.85
2023-01-31T08:29:32.805Z,6.83
2023-01-31T08:30:32.778Z,6.98
2023-01-31T08:31:32.766Z,6.95
2023-01-31T08:32:32.809Z,6.94
2023-01-31T08:33:32.645Z,6.98
2023-01-31T08:34:32.798Z,6.95
2023-01-31T08:35:32.626Z,6.91
2023-01-31T08:36:32.871Z,6.90
2023-01-31T08:37:32.665Z,6.97
2023-01-31T08:38:32.722Z,6.95
2023-01-31T08:39:32.427Z,6.97
2023-01-31T08:40:32.714Z,6.95
2023-01-31T08:41:32.652Z,6.94
2023-01-31T08:42:32.761Z,6.95
2023-01-31T08:43:39.356Z,7.01
2023-01-31T08:44:32.721Z,7.12
2023-01-31T08:45:32.575Z,7.11
2023-01-31T08:46:32.672Z,7.15
2023-01-31T08:47:32.657Z,7.08
2023-01-31T08:48:32.637Z,7.13
2023-01-31T08:49:32.683Z,7.21
2023-01-31T08:50:32.994Z,7.19
2023-01-31T08:51:32.710Z,7.27
2023-01-31T08:52:32.741Z,7.22
2023-01-31T08:53:32.756Z,7.23
2023-01-31T08:54:32.781Z,7.27
2023-01-31T08:55:32.808Z,7.21
2023-01-31T08:56:32.846Z,7.16
2023-01-31T08:57:32.857Z,7.22
2023-01-31T08:58:32.877Z,7.18
2023-01-31T08:59:32.909Z,7.21
2023-01-31T09:00:32.924Z,7.15
2023-01-31T09:01:32.975Z,7.09
2023-01-31T09:02:33.591Z,7.09
2023-01-31T09:03:33.621Z,7.08
2023-01-31T09:04:33.174Z,7.13
2023-01-31T09:05:33.655Z,7.09
2023-01-31T09:06:33.510Z,7.11
2023-01-31T09:07:33.141Z,7.11
2023-01-31T09:08:33.114Z,7.08
2023-01-31T09:09:33.159Z,7.15
2023-01-31T09:10:33.696Z,7.08
2023-01-31T09:11:33.617Z,7.16
2023-01-31T09:12:33.293Z,7.22
2023-01-31T09:13:33.421Z,7.19
2023-01-31T09:14:33.600Z,7.23
2023-01-31T09:15:33.708Z,7.16
2023-01-31T09:16:33.633Z,7.26
2023-01-31T09:17:33.474Z,7.26
2023-01-31T09:18:33.462Z,7.27
2023-01-31T09:19:33.369Z,7.31
2023-01-31T09:20:33.398Z,7.33
2023-01-31T09:21:33.621Z,7.29
2023-01-31T09:22:33.445Z,7.21
2023-01-31T09:23:33.466Z,7.27
2023-01-31T09:24:33.490Z,7.34
2023-01-31T09:25:44.319Z,7.33
2023-01-31T09:26:33.646Z,7.37
2023-01-31T09:27:33.561Z,7.27
2023-01-31T09:28:33.637Z,7.33
2023-01-31T09:29:33.666Z,7.29
2023-01-31T09:30:33.646Z,7.36
2023-01-31T09:31:33.761Z,7.31
2023-01-31T09:32:33.680Z,7.31
2023-01-31T09:33:33.711Z,7.30
2023-01-31T09:34:33.731Z,7.30
2023-01-31T09:35:34.199Z,7.49
2023-01-31T09:36:34.400Z,7.41
2023-01-31T09:37:33.833Z,7.40
2023-01-31T09:38:34.212Z,7.41
2023-01-31T09:39:34.327Z,7.45
2023-01-31T09:40:33.875Z,7.41
2023-01-31T09:41:33.903Z,7.39
2023-01-31T09:42:33.919Z,7.40
2023-01-31T09:43:33.941Z,7.48
2023-01-31T09:44:33.965Z,7.51
2023-01-31T09:45:33.992Z,7.48
2023-01-31T09:46:34.041Z,7.52
2023-01-31T09:47:34.034Z,7.56
2023-01-31T09:48:34.228Z,7.52
2023-01-31T09:49:34.084Z,7.61
2023-01-31T09:50:34.112Z,7.59
2023-01-31T09:51:34.130Z,7.54
2023-01-31T09:52:34.158Z,7.56
2023-01-31T09:53:34.199Z,7.63
2023-01-31T09:54:34.207Z,7.54
2023-01-31T09:55:34.224Z,7.55
2023-01-31T09:56:34.251Z,7.67
2023-01-31T09:57:34.273Z,7.47
2023-01-31T09:58:34.298Z,7.45
2023-01-31T09:59:34.334Z,7.45
2023-01-31T10:00:34.346Z,7.36
2023-01-31T10:01:34.381Z,7.34
2023-01-31T10:02:34.394Z,7.48
2023-01-31T10:03:34.461Z,7.45
2023-01-31T10:04:34.446Z,7.44
2023-01-31T10:05:34.497Z,7.47
2023-01-31T10:06:34.493Z,7.49
2023-01-31T10:07:34.515Z,7.56
2023-01-31T10:08:34.535Z,7.59
2023-01-31T10:09:34.582Z,7.59
2023-01-31T10:10:34.588Z,7.64
2023-01-31T10:11:36.494Z,7.61
2023-01-31T10:12:34.630Z,7.58
2023-01-31T10:13:34.652Z,7.52
2023-01-31T10:14:34.679Z,7.49
2023-01-31T10:15:34.701Z,7.56
2023-01-31T10:16:34.726Z,7.55
2023-01-31T10:17:34.792Z,7.47
2023-01-31T10:18:34.772Z,7.56
2023-01-31T10:19:34.793Z,7.47
2023-01-31T10:20:34.818Z,7.49
2023-01-31T10:21:34.842Z,7.48
2023-01-31T10:22:34.869Z,7.51
2023-01-31T10:23:34.889Z,7.47
2023-01-31T10:24:34.920Z,7.41
2023-01-31T10:25:34.978Z,7.44
2023-01-31T10:26:35.037Z,7.45
2023-01-31T10:27:34.988Z,7.45
2023-01-31T10:28:35.039Z,7.39
2023-01-31T10:29:35.048Z,7.34
2023-01-31T10:30:35.118Z,7.52
2023-01-31T10:31:35.132Z,7.68
2023-01-31T10:32:35.106Z,7.64
2023-01-31T10:33:35.130Z,7.64
2023-01-31T10:34:35.154Z,7.73
2023-01-31T10:35:35.176Z,7.82
2023-01-31T10:36:35.207Z,7.88
2023-01-31T10:37:35.221Z,7.86
2023-01-31T10:38:35.247Z,7.93
2023-01-31T10:39:35.273Z,7.93
2023-01-31T10:40:35.293Z,7.99
2023-01-31T10:41:35.353Z,8.04
2023-01-31T10:42:35.342Z,7.96
2023-01-31T10:43:35.371Z,8.03
2023-01-31T10:44:35.389Z,8.01
2023-01-31T10:45:35.514Z,7.99
2023-01-31T10:46:35.644Z,7.96
2023-01-31T10:47:35.475Z,7.96
2023-01-31T10:48:35.484Z,7.95
2023-01-31T10:49:35.509Z,7.96
2023-01-31T10:50:35.538Z,8.01
2023-01-31T10:51:35.636Z,7.93
2023-01-31T10:52:35.589Z,7.98
2023-01-31T10:53:35.605Z,7.93
2023-01-31T10:54:35.629Z,7.88
2023-01-31T10:55:36.172Z,7.89
2023-01-31T10:56:35.876Z,7.99
2023-01-31T10:57:35.738Z,8.01
2023-01-31T10:58:35.729Z,7.99
2023-01-31T10:59:35.749Z,8.06
2023-01-31T11:00:35.773Z,8.13
2023-01-31T11:01:35.795Z,8.14
2023-01-31T11:02:35.950Z,8.14
2023-01-31T11:03:35.843Z,8.26
2023-01-31T11:04:35.870Z,8.25
2023-01-31T11:05:35.890Z,8.34
2023-01-31T11:06:35.915Z,8.32
2023-01-31T11:07:35.943Z,8.29
2023-01-31T11:08:35.967Z,8.32
2023-01-31T11:09:35.992Z,8.34
2023-01-31T11:10:36.017Z,8.35
2023-01-31T11:11:36.035Z,8.40
2023-01-31T11:12:36.062Z,8.40
2023-01-31T11:13:36.102Z,8.47
2023-01-31T11:14:36.113Z,8.53
2023-01-31T11:15:36.157Z,8.57
2023-01-31T11:16:36.155Z,8.67
2023-01-31T11:17:36.185Z,8.65
2023-01-31T11:18:36.205Z,8.67
2023-01-31T11:19:36.229Z,8.64
2023-01-31T11:20:36.270Z,8.83
2023-01-31T11:21:36.287Z,8.65
2023-01-31T11:22:36.303Z,8.58
2023-01-31T11:23:36.324Z,8.69
2023-01-31T11:24:36.351Z,8.65
2023-01-31T11:25:36.383Z,8.60
2023-01-31T11:26:36.463Z,8.80
2023-01-31T11:27:36.430Z,8.72
2023-01-31T11:28:36.458Z,8.72
2023-01-31T11:29:36.497Z,8.77
2023-01-31T11:30:36.534Z,8.77
2023-01-31T11:31:36.564Z,8.83
2023-01-31T11:32:36.572Z,8.98
2023-01-31T11:33:36.570Z,9.09
2023-01-31T11:34:36.595Z,9.09
2023-01-31T11:35:36.617Z,9.11
2023-01-31T11:36:36.644Z,9.12
2023-01-31T11:37:36.682Z,9.16
2023-01-31T11:38:36.695Z,9.17
2023-01-31T11:39:36.716Z,9.16
2023-01-31T11:40:36.747Z,9.16
2023-01-31T11:41:36.795Z,9.11
2023-01-31T11:42:36.794Z,9.14
2023-01-31T11:43:36.827Z,9.12
2023-01-31T11:44:36.847Z,9.21
2023-01-31T11:45:36.901Z,9.27
2023-01-31T11:46:36.940Z,9.23
2023-01-31T11:47:36.914Z,9.12
2023-01-31T11:48:36.943Z,9.12
2023-01-31T11:49:36.971Z,9.11
2023-01-31T11:50:36.992Z,9.17
2023-01-31T11:51:37.019Z,9.09
2023-01-31T11:52:37.040Z,9.09
2023-01-31T11:53:37.063Z,9.12
2023-01-31T11:54:37.100Z,9.00
2023-01-31T11:55:37.127Z,9.01
2023-01-31T11:56:37.146Z,9.03
2023-01-31T11:57:37.165Z,9.09
2023-01-31T11:58:37.196Z,9.04
2023-01-31T11:59:37.211Z,9.04
2023-01-31T12:00:37.241Z,9.03
2023-01-31T12:01:37.285Z,9.08
2023-01-31T12:02:37.320Z,9.19
2023-01-31T12:03:37.395Z,9.17
2023-01-31T12:04:37.337Z,9.17
2023-01-31T12:05:37.361Z,9.16
2023-01-31T12:06:37.426Z,9.19
2023-01-31T12:07:37.411Z,9.14
2023-01-31T12:08:37.441Z,9.12
2023-01-31T12:09:37.469Z,9.14
2023-01-31T12:10:37.485Z,9.05
2023-01-31T12:11:37.513Z,9.05
2023-01-31T12:12:37.543Z,9.08
2023-01-31T12:13:37.566Z,9.03
2023-01-31T12:14:37.587Z,9.00
2023-01-31T12:15:37.614Z,8.97
2023-01-31T12:16:37.787Z,9.05
2023-01-31T12:17:37.680Z,9.04
2023-01-31T12:18:37.691Z,8.97
2023-01-31T12:19:37.711Z,8.97
2023-01-31T12:20:37.737Z,8.97
2023-01-31T12:21:37.759Z,8.97
2023-01-31T12:22:37.784Z,9.03
2023-01-31T12:23:37.808Z,9.03
2023-01-31T12:24:37.833Z,9.09
2023-01-31T12:25:37.861Z,9.05
2023-01-31T12:26:37.983Z,9.12
2023-01-31T12:27:37.915Z,9.12
2023-01-31T12:28:37.940Z,9.19
2023-01-31T12:29:37.976Z,9.19
2023-01-31T12:30:38.017Z,9.21
2023-01-31T12:31:38.054Z,9.09
2023-01-31T12:32:38.032Z,9.05
2023-01-31T12:33:38.099Z,9.04
2023-01-31T12:34:47.097Z,8.98
2023-01-31T12:35:38.116Z,8.98
2023-01-31T12:36:38.131Z,8.97
2023-01-31T12:37:38.174Z,8.95
2023-01-31T12:38:38.184Z,8.95
2023-01-31T12:39:38.208Z,8.94
2023-01-31T12:40:38.250Z,8.92
2023-01-31T12:41:38.271Z,8.94
2023-01-31T12:42:38.294Z,8.94
2023-01-31T12:43:38.306Z,8.87
2023-01-31T12:44:38.329Z,8.95
2023-01-31T12:45:38.377Z,8.92
2023-01-31T12:46:38.424Z,8.87
2023-01-31T12:47:38.404Z,8.94
2023-01-31T12:48:38.431Z,8.80
2023-01-31T12:49:38.482Z,8.97
2023-01-31T12:50:38.479Z,9.00
2023-01-31T12:51:38.505Z,9.11
2023-01-31T12:52:38.542Z,9.12
2023-01-31T12:53:38.566Z,9.05
2023-01-31T12:54:38.580Z,9.11
2023-01-31T12:55:38.603Z,9.09
2023-01-31T12:56:38.625Z,9.14
2023-01-31T12:57:38.656Z,9.09
2023-01-31T12:58:38.677Z,9.11
2023-01-31T12:59:38.703Z,9.09
2023-01-31T13:00:38.727Z,9.12
2023-01-31T13:01:38.774Z,9.09
2023-01-31T13:02:38.815Z,9.09
2023-01-31T13:03:39.232Z,9.08
2023-01-31T13:04:38.830Z,9.11
2023-01-31T13:05:38.910Z,9.08
2023-01-31T13:06:38.880Z,9.16
2023-01-31T13:07:38.915Z,9.09
2023-01-31T13:08:41.104Z,9.16
2023-01-31T13:09:38.962Z,9.14
2023-01-31T13:10:38.977Z,9.08
2023-01-31T13:11:39.000Z,9.08
2023-01-31T13:12:39.030Z,9.08
2023-01-31T13:13:39.056Z,9.09
2023-01-31T13:14:39.075Z,9.03
2023-01-31T13:15:39.162Z,9.01
2023-01-31T13:16:39.122Z,9.01
2023-01-31T13:17:39.148Z,9.08
2023-01-31T13:18:39.178Z,9.08